createdAt,value
2023-04-22T00:00:05.758Z,11.20
2023-04-22T00:01:52.480Z,11.24
2023-04-22T00:03:27.147Z,10.86
2023-04-22T00:05:01.436Z,11.51
2023-04-22T00:06:23.376Z,11.21
2023-04-22T00:07:45.149Z,10.57
2023-04-22T00:09:14.461Z,11.40
2023-04-22T00:10:38.627Z,10.66
2023-04-22T00:12:00.046Z,10.79
2023-04-22T00:13:30.032Z,10.61
2023-04-22T00:15:03.529Z,10.79
2023-04-22T00:16:49.103Z,11.90
2023-04-22T00:18:34.377Z,11.16
2023-04-22T00:20:00.596Z,10.66
2023-04-22T00:21:34.729Z,11.00
2023-04-22T00:23:07.902Z,10.82
2023-04-22T00:24:43.453Z,11.10
2023-04-22T00:26:12.721Z,10.99
2023-04-22T00:27:45.870Z,10.96
2023-04-22T00:29:40.037Z,10.95
2023-04-22T00:31:33.789Z,10.52
2023-04-22T00:33:14.505Z,10.26
2023-04-22T00:34:59.453Z,10.81
2023-04-22T00:36:21.643Z,10.48
2023-04-22T00:38:06.651Z,10.58
2023-04-22T00:39:42.450Z,10.46
2023-04-22T00:41:19.125Z,10.18
2023-04-22T00:42:52.160Z,9.81
2023-04-22T00:44:15.129Z,10.32
2023-04-22T00:45:46.346Z,10.32
2023-04-22T00:47:27.500Z,10.60
2023-04-22T00:49:12.955Z,10.51
2023-04-22T00:50:57.612Z,10.31
2023-04-22T00:52:33.379Z,10.40
2023-04-22T00:54:04.657Z,10.55
2023-04-22T00:55:27.115Z,10.58
2023-04-22T00:57:07.891Z,11.40
2023-04-22T00:58:52.779Z,10.66
2023-04-22T01:00:29.883Z,11.22
2023-04-22T01:01:51.455Z,11.60
2023-04-22T01:03:25.437Z,10.91
2023-04-22T01:04:54.477Z,11.00
2023-04-22T01:06:30.476Z,11.08
2023-04-22T01:08:03.611Z,12.37
2023-04-22T01:09:48.962Z,11.72
2023-04-22T01:11:13.033Z,11.64
2023-04-22T01:12:45.980Z,11.77
2023-04-22T01:14:30.898Z,12.12
2023-04-22T01:16:06.315Z,11.06
2023-04-22T01:17:50.949Z,12.12
2023-04-22T01:19:15.278Z,12.24
2023-04-22T01:20:59.852Z,11.64
2023-04-22T01:22:45.294Z,12.22
2023-04-22T01:24:26.544Z,11.88
2023-04-22T01:25:55.959Z,11.98
2023-04-22T01:27:20.588Z,11.21
2023-04-22T01:29:00.972Z,10.92
2023-04-22T01:30:34.586Z,11.09
2023-04-22T01:32:19.964Z,11.82
2023-04-22T01:33:55.992Z,11.14
2023-04-22T01:35:41.862Z,11.66
2023-04-22T01:37:04.093Z,11.86
2023-04-22T01:38:46.231Z,11.71
2023-04-22T01:40:19.916Z,11.09
2023-04-22T01:42:04.481Z,11.11
2023-04-22T01:43:39.954Z,10.93
2023-04-22T01:45:33.963Z,10.54
2023-04-22T01:47:08.217Z,11.08
2023-04-22T01:49:02.515Z,11.83
2023-04-22T01:50:24.812Z,12.04
2023-04-22T01:52:09.933Z,11.62
2023-04-22T01:53:54.859Z,11.08
2023-04-22T01:55:43.085Z,11.61
2023-04-22T01:57:19.360Z,11.23
2023-04-22T01:58:54.892Z,11.55
2023-04-22T02:00:19.569Z,12.01
2023-04-22T02:02:03.567Z,11.94
2023-04-22T02:03:25.920Z,11.66
2023-04-22T02:04:51.537Z,11.68
2023-04-22T02:06:25.371Z,12.23
2023-04-22T02:08:10.166Z,13.48
2023-04-22T02:10:03.312Z,12.17
2023-04-22T02:11:48.070Z,12.44
2023-04-22T02:13:30.557Z,12.38
2023-04-22T02:15:15.636Z,12.86
2023-04-22T02:17:00.780Z,12.41
2023-04-22T02:18:34.172Z,12.23
2023-04-22T02:19:55.553Z,12.74
2023-04-22T02:21:40.867Z,13.36
2023-04-22T02:23:14.026Z,13.14
2023-04-22T02:24:45.312Z,14.96
2023-04-22T02:26:30.474Z,15.19
2023-04-22T02:28:03.791Z,15.30
2023-04-22T02:29:46.520Z,15.70
2023-04-22T02:31:16.261Z,16.12
2023-04-22T02:32:40.063Z,15.72
2023-04-22T02:34:16.347Z,15.69
2023-04-22T02:35:40.502Z,16.20
2023-04-22T02:37:21.720Z,15.19
2023-04-22T02:38:57.136Z,16.21
2023-04-22T02:40:39.966Z,16.41
2023-04-22T02:42:06.060Z,17.13
2023-04-22T02:43:51.394Z,17.37
2023-04-22T02:45:25.272Z,16.95
2023-04-22T02:47:09.950Z,16.10
2023-04-22T02:48:55.055Z,18.06
2023-04-22T02:50:49.586Z,16.81
2023-04-22T02:52:35.358Z,17.41
2023-04-22T02:54:10.607Z,17.19
2023-04-22T02:55:55.697Z,18.17
2023-04-22T02:57:44.868Z,18.50
2023-04-22T02:59:39.886Z,17.85
2023-04-22T03:01:27.873Z,17.82
2023-04-22T03:03:13.607Z,17.92
2023-04-22T03:04:49.308Z,18.12
2023-04-22T03:06:33.226Z,18.29
2023-04-22T03:08:08.746Z,17.84
2023-04-22T03:09:53.584Z,17.71
2023-04-22T03:11:40.816Z,17.40
2023-04-22T03:13:14.083Z,17.60
2023-04-22T03:14:56.349Z,18.68
2023-04-22T03:16:44.705Z,18.47
2023-04-22T03:18:23.550Z,17.83
2023-04-22T03:19:56.865Z,18.19
2023-04-22T03:21:30.928Z,18.48
2023-04-22T03:22:52.646Z,18.14
2023-04-22T03:24:38.180Z,18.15
2023-04-22T03:26:14.325Z,17.51
2023-04-22T03:27:38.007Z,17.93
2023-04-22T03:29:14.017Z,17.52
2023-04-22T03:30:47.434Z,17.78
2023-04-22T03:32:31.522Z,17.74
2023-04-22T03:34:20.970Z,17.26
2023-04-22T03:36:01.703Z,17.66
2023-04-22T03:37:52.569Z,16.75
2023-04-22T03:39:51.555Z,16.96
2023-04-22T03:41:28.239Z,16.02
2023-04-22T03:43:04.013Z,16.49
2023-04-22T03:44:41.007Z,16.40
2023-04-22T03:46:29.891Z,16.27
2023-04-22T03:48:29.589Z,16.00
2023-04-22T03:50:11.716Z,16.12
2023-04-22T03:51:33.509Z,17.16
2023-04-22T03:53:15.301Z,16.75
2023-04-22T03:55:00.351Z,16.68
2023-04-22T03:56:45.071Z,16.44
2023-04-22T03:58:26.458Z,15.62
2023-04-22T04:00:01.975Z,15.92
2023-04-22T04:01:47.629Z,15.34
2023-04-22T04:03:33.460Z,15.79
2023-04-22T04:05:19.368Z,15.27
2023-04-22T04:06:56.407Z,17.61
2023-04-22T04:08:41.945Z,21.62
2023-04-22T04:10:18.131Z,27.73
2023-04-22T04:12:01.607Z,34.16
2023-04-22T04:13:37.403Z,40.10
2023-04-22T04:15:52.756Z,43.44
2023-04-22T04:17:34.661Z,44.50
2023-04-22T04:19:07.861Z,42.83
2023-04-22T04:21:03.605Z,39.74
2023-04-22T04:22:58.535Z,33.90
2023-04-22T04:24:52.131Z,29.32
2023-04-22T04:26:42.341Z,26.78
2023-04-22T04:28:31.759Z,23.58
2023-04-22T04:30:16.726Z,23.22
2023-04-22T04:32:02.524Z,23.44
2023-04-22T04:33:38.076Z,23.61
2023-04-22T04:35:12.291Z,25.23
2023-04-22T04:36:58.083Z,24.71
2023-04-22T04:38:32.230Z,24.49
2023-04-22T04:40:16.989Z,23.38
2023-04-22T04:42:06.910Z,23.46
2023-04-22T04:43:54.743Z,23.77
2023-04-22T04:45:27.337Z,21.77
2023-04-22T04:47:10.126Z,21.54
2023-04-22T04:48:55.628Z,21.40
2023-04-22T04:50:36.850Z,20.83
2023-04-22T04:52:11.905Z,21.39
2023-04-22T04:53:45.465Z,20.31
2023-04-22T04:55:19.534Z,20.23
2023-04-22T04:57:04.434Z,19.36
2023-04-22T04:58:40.479Z,18.61
2023-04-22T05:00:30.462Z,18.53
2023-04-22T05:02:03.425Z,17.67
2023-04-22T05:03:25.958Z,18.44
2023-04-22T05:04:59.295Z,18.39
2023-04-22T05:06:26.212Z,17.65
2023-04-22T05:08:03.745Z,17.67
2023-04-22T05:09:46.722Z,18.09
2023-04-22T05:11:08.310Z,18.09
2023-04-22T05:12:34.791Z,17.10
2023-04-22T05:14:08.847Z,17.36
2023-04-22T05:15:55.676Z,18.00
2023-04-22T05:17:41.038Z,16.65
2023-04-22T05:19:05.277Z,15.73
2023-04-22T05:20:41.644Z,14.95
2023-04-22T05:22:18.145Z,14.21
2023-04-22T05:24:02.726Z,13.64
2023-04-22T05:25:27.425Z,13.94
2023-04-22T05:26:53.124Z,13.87
2023-04-22T05:28:24.964Z,13.76
2023-04-22T05:30:00.412Z,13.62
2023-04-22T05:31:38.486Z,13.14
2023-04-22T05:33:11.991Z,14.09
2023-04-22T05:34:54.026Z,13.56
2023-04-22T05:36:31.610Z,12.40
2023-04-22T05:38:16.196Z,12.99
2023-04-22T05:39:46.332Z,12.31
2023-04-22T05:41:18.439Z,12.71
2023-04-22T05:42:57.762Z,12.35
2023-04-22T05:44:40.064Z,12.47
2023-04-22T05:46:09.036Z,11.10
2023-04-22T05:47:50.104Z,8.85
2023-04-22T05:49:14.848Z,8.34
2023-04-22T05:51:03.057Z,7.41
2023-04-22T05:52:53.424Z,6.84
2023-04-22T05:54:39.041Z,6.85
2023-04-22T05:56:24.175Z,6.48
2023-04-22T05:57:53.409Z,6.65
2023-04-22T06:00:11.101Z,6.39
2023-04-22T06:02:00.228Z,6.85
2023-04-22T06:03:25.138Z,6.39
2023-04-22T06:05:10.490Z,6.93
2023-04-22T06:06:55.797Z,6.49
2023-04-22T06:08:20.310Z,7.35
2023-04-22T06:10:02.157Z,7.33
2023-04-22T06:11:28.842Z,7.17
2023-04-22T06:13:13.684Z,6.98
2023-04-22T06:14:37.651Z,7.35
2023-04-22T06:17:55.606Z,7.25
2023-04-22T06:19:24.787Z,6.92
2023-04-22T06:21:18.552Z,7.27
2023-04-22T06:22:54.360Z,7.08
2023-04-22T06:24:30.109Z,6.58
2023-04-22T06:26:03.157Z,7.31
2023-04-22T06:27:34.906Z,7.18
2023-04-22T06:29:08.339Z,7.14
2023-04-22T06:30:45.542Z,6.83
2023-04-22T06:32:19.414Z,6.67
2023-04-22T06:33:59.511Z,6.95
2023-04-22T06:35:44.814Z,6.99
2023-04-22T06:37:38.773Z,6.52
2023-04-22T06:41:45.507Z,5.96
2023-04-22T06:43:30.492Z,6.33
2023-04-22T06:45:15.538Z,6.66
2023-04-22T06:47:28.191Z,6.50
2023-04-22T06:49:17.549Z,6.35
2023-04-22T06:51:07.440Z,6.49
2023-04-22T06:52:29.755Z,6.61
2023-04-22T06:54:15.737Z,6.91
2023-04-22T06:55:55.943Z,6.76
2023-04-22T06:57:29.756Z,6.90
2023-04-22T06:59:00.821Z,6.69
2023-04-22T07:00:23.797Z,6.56
2023-04-22T07:02:08.691Z,6.30
2023-04-22T07:03:45.691Z,6.50
2023-04-22T07:05:40.437Z,6.25
2023-04-22T07:07:06.611Z,6.48
2023-04-22T07:08:35.867Z,6.20
2023-04-22T07:10:29.422Z,6.10
2023-04-22T07:12:29.344Z,6.04
2023-04-22T07:14:14.212Z,6.11
2023-04-22T07:15:59.182Z,6.06
2023-04-22T07:17:45.053Z,6.18
2023-04-22T07:19:38.643Z,5.97
2023-04-22T07:21:02.938Z,6.48
2023-04-22T07:22:43.337Z,5.87
2023-04-22T07:24:04.800Z,5.78
2023-04-22T07:25:39.859Z,6.00
2023-04-22T07:27:02.404Z,5.85
2023-04-22T07:28:55.356Z,5.94
2023-04-22T07:30:29.112Z,6.54
2023-04-22T07:32:09.860Z,6.42
2023-04-22T07:33:50.473Z,5.81
2023-04-22T07:35:44.233Z,5.90
2023-04-22T07:37:37.585Z,6.14
2023-04-22T07:39:31.092Z,6.00
2023-04-22T07:40:54.941Z,6.13
2023-04-22T07:42:48.398Z,6.28
2023-04-22T07:44:22.253Z,6.20
2023-04-22T07:45:53.197Z,5.77
2023-04-22T07:47:34.478Z,5.86
2023-04-22T07:49:15.591Z,5.44
2023-04-22T07:50:44.701Z,6.27
2023-04-22T07:52:38.910Z,6.32
2023-04-22T07:54:12.449Z,6.30
2023-04-22T07:55:57.409Z,5.96
2023-04-22T07:57:45.593Z,5.73
2023-04-22T07:59:30.683Z,5.94
2023-04-22T08:01:03.956Z,5.65
2023-04-22T08:02:56.158Z,5.32
2023-04-22T08:04:50.681Z,5.56
2023-04-22T08:06:26.596Z,6.42
2023-04-22T08:08:11.481Z,5.41
2023-04-22T08:09:56.482Z,6.06
2023-04-22T08:11:44.976Z,5.74
2023-04-22T08:13:27.021Z,5.78
2023-04-22T08:15:02.755Z,5.28
2023-04-22T08:16:48.139Z,5.81
2023-04-22T08:18:22.009Z,5.46
2023-04-22T08:19:57.471Z,5.31
2023-04-22T08:21:31.784Z,5.21
2023-04-22T08:22:57.212Z,5.68
2023-04-22T08:24:42.321Z,5.77
2023-04-22T08:26:03.972Z,5.66
2023-04-22T08:27:40.265Z,5.55
2023-04-22T08:29:14.025Z,5.31
2023-04-22T08:30:47.546Z,5.48
2023-04-22T08:32:28.502Z,5.54
2023-04-22T08:34:01.431Z,5.64
2023-04-22T08:35:46.541Z,5.33
2023-04-22T08:37:15.684Z,4.84
2023-04-22T08:38:50.104Z,5.36
2023-04-22T08:40:35.426Z,5.22
2023-04-22T08:42:10.460Z,6.01
2023-04-22T08:43:54.875Z,6.03
2023-04-22T08:45:40.825Z,5.77
2023-04-22T08:47:34.266Z,5.36
2023-04-22T08:49:18.966Z,5.63
2023-04-22T08:51:03.441Z,5.37
2023-04-22T08:52:48.516Z,5.79
2023-04-22T08:54:24.407Z,5.60
2023-04-22T08:56:09.293Z,5.08
2023-04-22T08:57:54.520Z,5.26
2023-04-22T08:59:19.134Z,5.66
2023-04-22T09:01:04.069Z,5.49
2023-04-22T09:02:58.673Z,4.93
2023-04-22T09:04:44.057Z,5.35
2023-04-22T09:06:27.603Z,6.39
2023-04-22T09:08:12.536Z,6.10
2023-04-22T09:09:57.365Z,5.45
2023-04-22T09:11:38.240Z,6.48
2023-04-22T09:13:13.921Z,5.81
2023-04-22T09:14:49.277Z,5.91
2023-04-22T09:16:15.785Z,6.05
2023-04-22T09:18:00.615Z,5.51
2023-04-22T09:19:34.343Z,5.56
2023-04-22T09:21:07.525Z,5.75
2023-04-22T09:22:37.441Z,5.74
2023-04-22T09:23:59.448Z,5.14
2023-04-22T09:25:33.296Z,5.37
2023-04-22T09:27:06.072Z,5.33
2023-04-22T09:28:30.336Z,5.86
2023-04-22T09:30:05.913Z,5.44
2023-04-22T09:31:41.322Z,5.37
2023-04-22T09:33:30.541Z,5.67
2023-04-22T09:34:54.631Z,6.12
2023-04-22T09:36:44.720Z,5.64
2023-04-22T09:38:29.947Z,5.49
2023-04-22T09:39:54.538Z,5.31
2023-04-22T09:41:27.938Z,5.63
2023-04-22T09:42:49.675Z,5.56
2023-04-22T09:44:25.635Z,6.16
2023-04-22T09:45:58.744Z,5.67
2023-04-22T09:47:26.542Z,5.64
2023-04-22T09:49:11.145Z,5.54
2023-04-22T09:50:40.452Z,5.96
2023-04-22T09:52:21.477Z,5.13
2023-04-22T09:54:06.170Z,5.63
2023-04-22T09:55:30.676Z,5.51
2023-04-22T09:57:19.208Z,5.52
2023-04-22T09:59:04.161Z,5.39
2023-04-22T10:00:57.626Z,5.48
2023-04-22T10:02:51.199Z,6.14
2023-04-22T10:04:15.911Z,5.94
2023-04-22T10:05:52.719Z,5.46
2023-04-22T10:07:31.254Z,5.46
2023-04-22T10:09:12.432Z,5.85
2023-04-22T10:10:48.604Z,5.08
2023-04-22T10:12:43.546Z,5.54
2023-04-22T10:14:10.378Z,5.78
2023-04-22T10:15:39.963Z,5.38
2023-04-22T10:17:18.570Z,5.88
2023-04-22T10:18:52.350Z,5.88
2023-04-22T10:20:38.374Z,5.22
2023-04-22T10:22:14.225Z,6.01
2023-04-22T10:23:49.598Z,6.38
2023-04-22T10:25:25.525Z,5.71
2023-04-22T10:27:10.748Z,5.93
2023-04-22T10:28:46.134Z,6.07
2023-04-22T10:30:22.650Z,5.83
2023-04-22T10:32:10.627Z,5.71
2023-04-22T10:33:35.075Z,5.98
2023-04-22T10:35:19.977Z,5.84
2023-04-22T10:37:05.097Z,5.84
2023-04-22T10:38:59.554Z,5.70
2023-04-22T10:40:44.650Z,5.45
2023-04-22T10:42:19.507Z,5.98
2023-04-22T10:44:04.472Z,5.99
2023-04-22T10:45:48.960Z,5.63
2023-04-22T10:47:10.520Z,5.97
2023-04-22T10:48:43.686Z,6.04
2023-04-22T10:50:28.502Z,5.91
2023-04-22T10:52:13.217Z,5.75
2023-04-22T10:53:58.552Z,5.71
2023-04-22T10:55:49.461Z,5.51
2023-04-22T10:57:37.594Z,5.70
2023-04-22T10:59:13.903Z,6.23
2023-04-22T11:00:59.820Z,6.31
2023-04-22T11:02:47.077Z,6.37
2023-04-22T11:04:41.560Z,6.76
2023-04-22T11:06:35.716Z,6.42
2023-04-22T11:08:20.330Z,5.88
2023-04-22T11:10:05.485Z,6.57
2023-04-22T11:11:50.160Z,6.28
2023-04-22T11:13:14.077Z,6.36
2023-04-22T11:14:56.211Z,6.51
2023-04-22T11:16:29.903Z,6.11
2023-04-22T11:18:15.135Z,6.73
2023-04-22T11:19:59.771Z,6.18
2023-04-22T11:21:41.991Z,6.21
2023-04-22T11:23:23.387Z,6.23
2023-04-22T11:25:08.222Z,5.44
2023-04-22T11:26:43.712Z,6.15
2023-04-22T11:28:37.545Z,5.74
2023-04-22T11:30:22.703Z,5.45
2023-04-22T11:31:57.899Z,5.71
2023-04-22T11:33:50.247Z,5.63
2023-04-22T11:35:31.330Z,5.53
2023-04-22T11:37:12.228Z,5.92
2023-04-22T11:38:45.297Z,6.11
2023-04-22T11:40:40.044Z,6.02
2023-04-22T11:42:25.542Z,5.38
2023-04-22T11:44:00.919Z,5.55
2023-04-22T11:45:36.071Z,6.11
2023-04-22T11:47:30.570Z,5.78
2023-04-22T11:49:03.281Z,6.14
2023-04-22T11:50:57.641Z,5.48
2023-04-22T11:52:43.557Z,6.03
2023-04-22T11:54:38.595Z,5.52
2023-04-22T11:56:14.275Z,5.52
2023-04-22T11:57:47.602Z,5.73
2023-04-22T11:59:23.748Z,5.22
2023-04-22T12:01:04.161Z,5.78
2023-04-22T12:02:58.850Z,6.08
2023-04-22T12:04:32.867Z,6.04
2023-04-22T12:06:17.232Z,6.42
2023-04-22T12:08:02.560Z,5.52
2023-04-22T12:09:55.777Z,5.91
2023-04-22T12:11:50.559Z,6.28
2023-04-22T12:13:33.565Z,6.16
2023-04-22T12:15:18.917Z,5.29
2023-04-22T12:17:03.791Z,5.51
2023-04-22T12:18:57.322Z,5.25
2023-04-22T12:20:52.561Z,5.20
2023-04-22T12:22:26.309Z,5.00
2023-04-22T12:23:50.269Z,5.21
2023-04-22T12:25:45.562Z,5.55
2023-04-22T12:27:11.858Z,5.51
2023-04-22T12:28:56.729Z,5.61
2023-04-22T12:30:40.988Z,5.38
2023-04-22T12:32:35.559Z,5.61
2023-04-22T12:34:09.021Z,6.10
2023-04-22T12:35:55.413Z,5.99
2023-04-22T12:37:51.230Z,5.71
2023-04-22T12:39:37.850Z,5.37
2023-04-22T12:41:23.002Z,5.37
2023-04-22T12:43:07.895Z,5.69
2023-04-22T12:45:01.102Z,5.79
2023-04-22T12:46:50.728Z,5.44
2023-04-22T12:48:45.604Z,5.58
2023-04-22T12:50:40.603Z,5.78
2023-04-22T12:52:35.588Z,5.37
2023-04-22T12:54:20.368Z,5.39
2023-04-22T12:56:05.432Z,5.91
2023-04-22T12:57:59.593Z,5.76
2023-04-22T12:59:54.580Z,5.15
2023-04-22T13:01:35.971Z,5.11
2023-04-22T13:03:09.348Z,5.83
2023-04-22T13:05:01.995Z,5.69
2023-04-22T13:06:46.569Z,5.27
2023-04-22T13:08:40.586Z,5.66
2023-04-22T13:10:35.698Z,5.44
2023-04-22T13:12:04.866Z,5.91
2023-04-22T13:13:58.519Z,5.71
2023-04-22T13:15:54.341Z,6.47
2023-04-22T13:17:39.726Z,5.94
2023-04-22T13:19:30.579Z,5.60
2023-04-22T13:21:20.502Z,5.73
2023-04-22T13:23:05.308Z,5.85
2023-04-22T13:24:59.584Z,5.98
2023-04-22T13:26:54.576Z,5.38
2023-04-22T13:28:44.107Z,5.84
2023-04-22T13:30:19.981Z,5.63
2023-04-22T13:32:04.912Z,5.22
2023-04-22T13:33:59.586Z,5.74
2023-04-22T13:35:54.606Z,5.34
2023-04-22T13:37:39.861Z,5.06
2023-04-22T13:39:34.602Z,5.29
2023-04-22T13:41:19.004Z,5.76
2023-04-22T13:43:04.391Z,5.32
2023-04-22T13:44:43.067Z,5.20
2023-04-22T13:46:37.589Z,4.96
2023-04-22T13:48:23.040Z,5.82
2023-04-22T13:50:07.960Z,5.61
2023-04-22T13:51:41.481Z,5.20
2023-04-22T13:53:15.758Z,5.10
2023-04-22T13:54:56.371Z,5.64
2023-04-22T13:56:29.845Z,5.30
2023-04-22T13:58:15.086Z,5.45
2023-04-22T13:59:59.596Z,5.15
2023-04-22T14:03:55.617Z,5.30
2023-04-22T14:07:54.650Z,5.41
2023-04-22T14:09:42.619Z,5.23
2023-04-22T14:11:16.288Z,5.25
2023-04-22T14:13:01.100Z,4.76
2023-04-22T14:14:35.030Z,5.34
2023-04-22T14:16:28.260Z,5.08
2023-04-22T14:18:12.999Z,5.09
2023-04-22T14:19:58.177Z,5.56
2023-04-22T14:21:31.955Z,5.17
2023-04-22T14:23:05.109Z,5.06
2023-04-22T14:24:52.130Z,5.33
2023-04-22T14:26:46.641Z,5.49
2023-04-22T14:28:40.272Z,5.22
2023-04-22T14:30:25.895Z,5.26
2023-04-22T14:31:59.455Z,5.90
2023-04-22T14:33:54.631Z,5.39
2023-04-22T14:35:42.166Z,5.42
2023-04-22T14:37:15.819Z,4.95
2023-04-22T14:38:49.190Z,4.74
2023-04-22T14:40:19.987Z,4.85
2023-04-22T14:42:00.154Z,4.78
2023-04-22T14:43:36.032Z,5.25
2023-04-22T14:45:11.721Z,5.08
2023-04-22T14:46:45.305Z,4.76
2023-04-22T14:48:38.925Z,4.85
2023-04-22T14:50:20.248Z,5.44
2023-04-22T14:52:05.073Z,4.89
2023-04-22T14:53:50.015Z,5.12
2023-04-22T14:55:41.404Z,4.65
2023-04-22T14:57:26.464Z,5.20
2023-04-22T14:59:06.661Z,4.88
2023-04-22T15:00:40.263Z,4.48
2023-04-22T15:02:15.500Z,4.74
2023-04-22T15:03:56.026Z,4.93
2023-04-22T15:05:42.229Z,4.48
2023-04-22T15:07:15.999Z,4.86
2023-04-22T15:09:00.354Z,4.92
2023-04-22T15:10:37.230Z,4.20
2023-04-22T15:12:10.873Z,4.85
2023-04-22T15:13:44.473Z,4.86
2023-04-22T15:15:17.829Z,4.94
2023-04-22T15:16:44.355Z,5.09
2023-04-22T15:18:29.580Z,4.43
2023-04-22T15:20:07.205Z,4.47
2023-04-22T15:22:00.952Z,4.61
2023-04-22T15:23:46.507Z,4.28
2023-04-22T15:25:33.293Z,4.26
2023-04-22T15:27:25.388Z,4.44
2023-04-22T15:28:58.730Z,4.02
2023-04-22T15:30:53.701Z,4.52
2023-04-22T15:32:39.537Z,4.25
2023-04-22T15:34:34.643Z,4.27
2023-04-22T15:36:19.355Z,4.20
2023-04-22T15:38:04.686Z,3.86
2023-04-22T15:39:58.034Z,4.02
2023-04-22T15:41:48.359Z,3.53
2023-04-22T15:43:35.091Z,3.79
2023-04-22T15:45:08.310Z,4.26
2023-04-22T15:46:53.895Z,4.82
2023-04-22T15:48:23.279Z,5.02
2023-04-22T15:49:58.442Z,4.95
2023-04-22T15:51:32.571Z,4.39
2023-04-22T15:53:05.661Z,4.81
2023-04-22T15:54:50.656Z,5.59
2023-04-22T15:56:39.219Z,4.55
2023-04-22T15:58:24.597Z,4.11
2023-04-22T16:00:10.177Z,4.02
2023-04-22T16:01:46.151Z,3.63
2023-04-22T16:03:36.670Z,4.46
2023-04-22T16:05:30.097Z,5.37
2023-04-22T16:07:15.085Z,3.40
2023-04-22T16:08:55.835Z,3.31
2023-04-22T16:10:29.468Z,3.13
2023-04-22T16:12:02.403Z,3.03
2023-04-22T16:13:46.795Z,2.96
2023-04-22T16:15:41.646Z,2.80
2023-04-22T16:17:27.336Z,2.84
2023-04-22T16:19:00.608Z,3.09
2023-04-22T16:20:30.142Z,3.43
2023-04-22T16:22:05.597Z,3.19
2023-04-22T16:23:50.350Z,3.28
2023-04-22T16:25:31.446Z,3.27
2023-04-22T16:27:24.236Z,3.66
2023-04-22T16:29:09.052Z,3.04
2023-04-22T16:33:03.774Z,3.31
2023-04-22T16:34:35.818Z,3.49
2023-04-22T16:36:20.618Z,3.60
2023-04-22T16:37:54.220Z,3.86
2023-04-22T16:39:30.131Z,3.74
2023-04-22T16:41:15.010Z,4.24
2023-04-22T16:43:00.541Z,4.34
2023-04-22T16:44:55.668Z,4.52
2023-04-22T16:46:47.221Z,4.16
2023-04-22T16:48:40.996Z,4.10
2023-04-22T16:50:26.403Z,3.89
2023-04-22T16:52:06.953Z,4.49
2023-04-22T16:54:01.672Z,3.86
2023-04-22T16:57:57.916Z,3.64
2023-04-22T16:59:46.254Z,4.05
2023-04-22T17:01:31.306Z,9.11
2023-04-22T17:03:07.597Z,19.77
2023-04-22T17:04:41.527Z,10.37
2023-04-22T17:06:15.301Z,5.45
2023-04-22T17:07:48.425Z,5.15
2023-04-22T17:09:15.449Z,4.84
2023-04-22T17:10:53.203Z,4.51
2023-04-22T17:12:35.351Z,5.07
2023-04-22T17:14:29.671Z,5.00
2023-04-22T17:16:09.895Z,5.45
2023-04-22T17:17:58.042Z,5.81
2023-04-22T17:19:44.527Z,5.60
2023-04-22T17:21:29.382Z,5.77
2023-04-22T17:23:22.906Z,5.47
2023-04-22T17:24:49.141Z,5.73
2023-04-22T17:26:28.974Z,5.87
2023-04-22T17:28:13.999Z,6.50
2023-04-22T17:29:55.829Z,7.70
2023-04-22T17:31:50.787Z,8.20
2023-04-22T17:33:26.909Z,8.24
2023-04-22T17:35:07.940Z,8.41
2023-04-22T17:37:02.694Z,8.07
2023-04-22T17:38:45.664Z,7.86
2023-04-22T17:40:26.412Z,7.89
2023-04-22T17:41:59.713Z,8.06
2023-04-22T17:43:51.221Z,7.50
2023-04-22T17:45:27.278Z,7.78
2023-04-22T17:47:12.265Z,7.58
2023-04-22T17:48:55.692Z,7.51
2023-04-22T17:50:25.569Z,7.72
2023-04-22T17:52:05.960Z,7.75
2023-04-22T17:53:41.769Z,7.78
2023-04-22T17:55:17.706Z,7.42
2023-04-22T17:56:51.199Z,7.78
2023-04-22T17:58:35.567Z,7.15
2023-04-22T18:00:20.669Z,8.10
2023-04-22T18:01:54.321Z,7.65
2023-04-22T18:03:28.276Z,7.52
2023-04-22T18:05:01.712Z,7.80
2023-04-22T18:06:35.584Z,7.43
2023-04-22T18:08:25.700Z,7.55
2023-04-22T18:09:49.582Z,7.43
2023-04-22T18:11:25.787Z,7.81
2023-04-22T18:13:10.413Z,8.56
2023-04-22T18:14:51.395Z,9.11
2023-04-22T18:16:38.973Z,10.10
2023-04-22T18:18:23.682Z,10.22
2023-04-22T18:20:09.769Z,11.01
2023-04-22T18:21:59.499Z,10.82
2023-04-22T18:23:45.700Z,11.67
2023-04-22T18:25:19.256Z,11.46
2023-04-22T18:27:01.701Z,11.43
2023-04-22T18:28:55.313Z,11.75
2023-04-22T18:30:49.679Z,11.57
2023-04-22T18:32:35.002Z,11.80
2023-04-22T18:34:15.695Z,12.45
2023-04-22T18:36:00.828Z,11.80
2023-04-22T18:37:36.458Z,12.23
2023-04-22T18:39:05.417Z,12.13
2023-04-22T18:40:49.229Z,11.97
2023-04-22T18:42:10.782Z,12.24
2023-04-22T18:43:51.618Z,12.07
2023-04-22T18:45:16.780Z,11.56
2023-04-22T18:46:52.230Z,11.33
2023-04-22T18:48:45.836Z,11.64
2023-04-22T18:50:09.869Z,12.46
2023-04-22T18:51:55.978Z,13.34
2023-04-22T18:53:42.577Z,13.14
2023-04-22T18:55:28.270Z,12.88
2023-04-22T18:57:13.939Z,13.40
2023-04-22T18:58:45.035Z,13.83
2023-04-22T19:00:26.875Z,13.92
2023-04-22T19:02:02.070Z,14.17
2023-04-22T19:03:38.205Z,14.19
2023-04-22T19:05:24.200Z,14.69
2023-04-22T19:07:09.565Z,14.24
2023-04-22T19:08:54.934Z,14.16
2023-04-22T19:10:40.079Z,14.56
2023-04-22T19:12:26.314Z,14.52
2023-04-22T19:13:55.161Z,14.11
2023-04-22T19:15:29.214Z,14.83
2023-04-22T19:17:02.676Z,13.93
2023-04-22T19:18:24.768Z,14.25
2023-04-22T19:19:53.672Z,14.65
2023-04-22T19:21:48.724Z,13.59
2023-04-22T19:23:33.562Z,14.66
2023-04-22T19:25:18.407Z,14.44
2023-04-22T19:27:03.762Z,13.91
2023-04-22T19:28:56.952Z,13.90
2023-04-22T19:30:31.752Z,13.93
2023-04-22T19:31:58.827Z,13.76
2023-04-22T19:33:40.162Z,14.60
2023-04-22T19:35:15.656Z,13.84
2023-04-22T19:36:50.341Z,14.19
2023-04-22T19:38:24.247Z,14.14
2023-04-22T19:39:57.587Z,14.36
2023-04-22T19:41:33.502Z,14.26
2023-04-22T19:43:04.214Z,15.09
2023-04-22T19:44:49.466Z,15.32
2023-04-22T19:46:21.302Z,15.38
2023-04-22T19:47:54.254Z,16.54
2023-04-22T19:49:43.765Z,16.56
2023-04-22T19:51:17.613Z,16.49
2023-04-22T19:52:51.055Z,16.39
2023-04-22T19:54:45.919Z,16.52
2023-04-22T19:56:21.127Z,15.15
2023-04-22T19:58:05.967Z,15.04
2023-04-22T20:01:46.710Z,14.19
2023-04-22T20:03:26.316Z,13.52
2023-04-22T20:05:17.433Z,14.60
2023-04-22T20:07:02.833Z,13.85
2023-04-22T20:08:41.770Z,13.79
2023-04-22T20:10:29.025Z,13.64
2023-04-22T20:12:02.937Z,13.32
2023-04-22T20:13:39.678Z,13.55
2023-04-22T20:15:21.614Z,12.73
2023-04-22T20:16:47.685Z,12.21
2023-04-22T20:18:12.176Z,12.80
2023-04-22T20:19:56.887Z,12.14
2023-04-22T20:21:28.944Z,12.90
2023-04-22T20:23:22.077Z,12.59
2023-04-22T20:24:53.540Z,12.54
2023-04-22T20:26:17.482Z,12.74
2023-04-22T20:27:48.685Z,11.36
2023-04-22T20:29:12.717Z,12.00
2023-04-22T20:30:46.654Z,11.93
2023-04-22T20:32:11.379Z,11.97
2023-04-22T20:33:47.427Z,12.36
2023-04-22T20:35:23.297Z,11.95
2023-04-22T20:36:56.319Z,11.74
2023-04-22T20:38:26.552Z,10.99
2023-04-22T20:40:04.294Z,11.32
2023-04-22T20:41:36.008Z,11.93
2023-04-22T20:43:29.456Z,11.40
2023-04-22T20:45:05.244Z,10.85
2023-04-22T20:46:40.098Z,11.68
2023-04-22T20:48:33.412Z,11.50
2023-04-22T20:50:08.057Z,10.96
2023-04-22T20:51:41.770Z,10.55
2023-04-22T20:53:25.297Z,11.11
2023-04-22T20:55:10.442Z,11.10
2023-04-22T20:56:55.249Z,11.56
2023-04-22T20:58:28.835Z,10.82
2023-04-22T20:59:55.422Z,11.09
2023-04-22T21:01:30.493Z,11.64
2023-04-22T21:02:59.640Z,11.61
2023-04-22T21:04:26.438Z,11.55
2023-04-22T21:05:48.133Z,12.03
2023-04-22T21:07:41.775Z,10.79
2023-04-22T21:09:22.801Z,11.31
2023-04-22T21:10:59.426Z,11.12
2023-04-22T21:12:44.970Z,11.05
2023-04-22T21:14:39.766Z,10.85
2023-04-22T21:16:29.083Z,11.21
2023-04-22T21:18:23.561Z,11.13
2023-04-22T21:20:17.313Z,10.03
2023-04-22T21:22:02.337Z,9.91
2023-04-22T21:23:36.304Z,9.85
2023-04-22T21:25:21.226Z,10.13
2023-04-22T21:27:10.790Z,9.56
2023-04-22T21:28:45.501Z,9.96
2023-04-22T21:30:32.311Z,10.52
2023-04-22T21:32:09.431Z,10.12
2023-04-22T21:33:46.226Z,9.44
2023-04-22T21:35:33.692Z,9.35
2023-04-22T21:37:18.926Z,8.97
2023-04-22T21:38:42.889Z,9.23
2023-04-22T21:40:30.023Z,9.27
2023-04-22T21:42:14.944Z,8.77
2023-04-22T21:43:55.798Z,9.67
2023-04-22T21:45:40.856Z,14.31
2023-04-22T21:47:16.619Z,15.04
2023-04-22T21:48:49.883Z,11.88
2023-04-22T21:50:20.890Z,10.27
2023-04-22T21:51:56.509Z,9.38
2023-04-22T21:53:20.577Z,8.77
2023-04-22T21:54:53.932Z,9.00
2023-04-22T21:56:38.908Z,8.76
2023-04-22T21:58:14.200Z,8.90
2023-04-22T21:59:50.299Z,9.15
2023-04-22T22:01:35.906Z,9.01
2023-04-22T22:03:09.773Z,8.29
2023-04-22T22:04:43.553Z,8.48
2023-04-22T22:06:16.502Z,9.04
2023-04-22T22:07:43.473Z,8.37
2023-04-22T22:09:05.233Z,8.91
2023-04-22T22:10:27.301Z,8.70